Time;durP1;ratioP1;P1;durP2;ratioP2;P2;SDS_P1;SDS_P2;PMS_P1;PMS_P2;Temp;Humidity;BMP_temperature;BMP_pressure;BME280_temperature;BME280_humidity;BME280_pressure;Samples;Min_cycle;Max_cycle;Signal;HPM_P1;HPM_P2
2021/11/27 00:01:11;;;;;;;30.23;19.77;;;;;;;5.30;71.98;99002.20;1651477;86;20998;-72
2021/11/27 00:03:38;;;;;;;30.77;20.12;;;;;;;5.30;72.08;98999.58;1640625;87;20979;-72
2021/11/27 00:06:05;;;;;;;29.27;18.98;;;;;;;5.30;72.21;98992.55;1670890;83;22266;-71
2021/11/27 00:08:33;;;;;;;30.10;19.12;;;;;;;5.32;72.26;98989.84;1711000;83;21385;-71
2021/11/27 00:11:01;;;;;;;32.67;20.00;;;;;;;5.33;72.34;98975.31;1716234;82;21012;-71
2021/11/27 00:13:28;;;;;;;26.97;18.45;;;;;;;5.34;72.41;98961.74;1681093;83;20961;-71
2021/11/27 00:15:55;;;;;;;30.05;19.80;;;;;;;5.35;72.43;98966.02;1684151;84;20953;-71
2021/11/27 00:18:23;;;;;;;30.43;20.45;;;;;;;5.35;72.52;98955.55;1694385;84;21793;-71
2021/11/27 00:21:02;;;;;;;31.75;19.27;;;;;;;5.36;72.59;98948.05;1688829;83;20994;-72
2021/11/27 00:23:32;;;;;;;28.73;18.87;;;;;;;5.37;72.70;98948.39;1766225;80;21041;-72
2021/11/27 00:25:58;;;;;;;29.15;19.85;;;;;;;5.39;72.78;98933.39;1757272;81;21100;-71
2021/11/27 00:28:25;;;;;;;30.80;19.45;;;;;;;5.40;72.93;98930.67;1760174;81;21008;-71
2021/11/27 00:30:54;;;;;;;33.38;22.13;;;;;;;5.44;73.03;98922.91;1745362;82;22810;-71
2021/11/27 00:33:23;;;;;;;30.17;20.05;;;;;;;5.45;73.28;98920.64;1716815;83;21037;-72
2021/11/27 00:35:50;;;;;;;28.42;19.73;;;;;;;5.47;73.45;98908.72;1717994;80;21002;-72
2021/11/27 00:38:18;;;;;;;31.30;20.72;;;;;;;5.48;73.63;98913.00;1759883;80;21719;-73
2021/11/27 00:40:44;;;;;;;28.83;19.05;;;;;;;5.48;73.95;98901.22;1774956;80;20993;-72
2021/11/27 00:43:12;;;;;;;32.17;21.82;;;;;;;5.50;74.52;98902.39;1777400;80;22230;-72
2021/11/27 00:45:41;;;;;;;31.17;21.02;;;;;;;5.51;74.65;98893.61;1755484;80;21012;-72
2021/11/27 00:48:09;;;;;;;32.08;20.80;;;;;;;5.53;74.83;98893.00;1729914;80;20961;-72
2021/11/27 00:50:43;;;;;;;33.35;21.15;;;;;;;5.53;75.25;98893.83;1757867;80;20965;-71
2021/11/27 00:53:10;;;;;;;33.15;22.65;;;;;;;5.57;75.40;98878.20;1734753;80;21448;-71
2021/11/27 00:55:38;;;;;;;34.30;22.62;;;;;;;5.59;75.50;98882.83;1756389;80;22205;-71
2021/11/27 00:58:07;;;;;;;33.15;22.13;;;;;;;5.60;75.62;98867.97;1731538;82;21408;-72
2021/11/27 01:00:39;;;;;;;31.37;21.33;;;;;;;5.60;75.72;98855.70;1710669;83;21495;-72
2021/11/27 01:03:09;;;;;;;29.32;20.62;;;;;;;5.60;76.09;98853.09;1710854;81;21439;-71
2021/11/27 01:05:40;;;;;;;34.15;21.35;;;;;;;5.62;76.23;98845.93;1710955;83;21055;-71
2021/11/27 01:08:07;;;;;;;29.77;20.10;;;;;;;5.64;76.42;98847.11;1719575;80;21662;-72
2021/11/27 01:10:48;;;;;;;32.58;21.33;;;;;;;5.64;76.87;98841.39;1730167;81;21190;-72
2021/11/27 01:13:15;;;;;;;29.50;20.05;;;;;;;5.68;76.86;98833.61;1749594;80;22123;-71
2021/11/27 01:15:41;;;;;;;35.45;22.17;;;;;;;5.73;76.99;98837.17;1777322;80;21031;-71
2021/11/27 01:18:08;;;;;;;29.77;20.57;;;;;;;;;;1776122;80;21000;-72
2021/11/27 01:20:40;;;;;;;34.65;22.25;;;;;;;5.73;77.21;98820.97;1764489;80;21773;-72
2021/11/27 01:23:07;;;;;;;38.98;23.83;;;;;;;5.72;77.29;98811.45;1746947;80;20954;-72
2021/11/27 01:25:34;;;;;;;36.88;23.60;;;;;;;5.69;77.35;98821.34;1727379;80;21005;-72
2021/11/27 01:28:01;;;;;;;35.58;23.10;;;;;;;5.65;77.42;98805.06;1728975;82;21305;-72
2021/11/27 01:30:29;;;;;;;32.20;22.02;;;;;;;5.64;77.55;98814.36;1741903;81;21138;-71
2021/11/27 01:32:57;;;;;;;35.55;22.30;;;;;;;5.63;77.66;98812.70;1731097;82;21863;-72
2021/11/27 01:35:23;;;;;;;36.33;24.50;;;;;;;5.61;77.75;98796.30;1759765;81;21093;-71
2021/11/27 01:37:50;;;;;;;36.05;24.35;;;;;;;5.58;77.90;98792.13;1740095;81;21510;-71
2021/11/27 01:40:21;;;;;;;35.50;24.12;;;;;;;5.55;78.02;98792.39;1758176;81;21016;-71
2021/11/27 01:42:47;;;;;;;39.42;26.60;;;;;;;5.53;78.16;98781.22;1761246;80;21068;-72
2021/11/27 01:45:15;;;;;;;37.98;25.57;;;;;;;5.52;78.38;98778.25;1757873;81;22992;-72
2021/11/27 01:47:50;;;;;;;39.85;25.75;;;;;;;5.50;78.53;98767.08;1731036;83;21061;-72
2021/11/27 01:50:17;;;;;;;35.30;23.40;;;;;;;5.50;78.68;98766.23;1730254;82;20992;-71
2021/11/27 01:52:44;;;;;;;38.13;24.63;;;;;;;5.50;78.78;98775.39;1722931;83;20960;-72
2021/11/27 01:55:12;;;;;;;38.95;24.98;;;;;;;5.48;78.88;98766.84;1715166;83;20996;-72
2021/11/27 01:57:41;;;;;;;43.42;29.15;;;;;;;5.47;78.99;98767.32;1715310;83;21837;-72
2021/11/27 02:00:11;;;;;;;39.60;26.57;;;;;;;5.46;79.10;98765.66;1720954;81;20946;-72
2021/11/27 02:02:40;;;;;;;41.25;27.37;;;;;;;5.46;79.25;98759.12;1689196;84;21009;-72
2021/11/27 02:05:07;;;;;;;40.48;26.82;;;;;;;5.48;79.35;98765.53;1731301;82;21061;-72
2021/11/27 02:07:36;;;;;;;38.38;25.12;;;;;;;5.48;79.52;98755.88;1731104;82;20994;-71
2021/11/27 02:10:06;;;;;;;36.88;25.27;;;;;;;5.48;79.66;98751.95;1726580;81;22862;-70
2021/11/27 02:12:34;;;;;;;35.00;23.07;;;;;;;5.50;79.87;98755.30;1688168;83;20955;-71
2021/11/27 02:15:01;;;;;;;31.80;22.22;;;;;;;5.52;80.06;98732.91;1715341;83;20995;-72
2021/11/27 02:17:28;;;;;;;34.83;22.67;;;;;;;5.56;80.23;98740.84;1710475;83;21649;-72
2021/11/27 02:19:55;;;;;;;37.65;24.50;;;;;;;5.60;80.32;98720.00;1730073;82;21426;-71
2021/11/27 02:22:22;;;;;;;32.80;22.75;;;;;;;5.64;80.46;98714.35;1730927;83;21898;-72
2021/11/27 02:24:50;;;;;;;31.65;22.50;;;;;;;5.69;80.54;98710.02;1731380;83;21029;-71
2021/11/27 02:27:17;;;;;;;33.78;22.95;;;;;;;5.71;80.70;98702.88;1706679;83;20963;-70
2021/11/27 02:29:43;;;;;;;32.33;22.00;;;;;;;5.73;80.80;98712.25;1717995;83;21079;-71
2021/11/27 02:32:11;;;;;;;33.08;22.00;;;;;;;5.76;80.93;98703.30;1671304;85;21069;-71
2021/11/27 02:34:37;;;;;;;29.48;21.50;;;;;;;5.77;80.99;98692.33;1673003;85;22658;-70
2021/11/27 02:37:06;;;;;;;32.95;21.60;;;;;;;5.81;81.01;98687.20;1685916;84;20989;-72
2021/11/27 02:39:35;;;;;;;32.63;21.40;;;;;;;5.82;81.05;98675.75;1726030;82;20961;-72
2021/11/27 02:42:03;;;;;;;31.37;21.12;;;;;;;5.85;81.16;98676.78;1764047;80;21057;-73
2021/11/27 02:44:31;;;;;;;30.25;19.37;;;;;;;5.87;81.27;98674.85;1777315;80;21570;-72
2021/11/27 02:47:00;;;;;;;26.17;18.40;;;;;;;5.89;81.44;98661.98;1777279;80;22658;-72
2021/11/27 02:49:26;;;;;;;31.23;21.23;;;;;;;5.92;81.53;98660.44;1720117;80;22474;-72
2021/11/27 02:51:54;;;;;;;26.80;19.95;;;;;;;5.95;81.59;98654.09;1750560;80;20993;-72
2021/11/27 02:54:20;;;;;;;25.57;19.05;;;;;;;5.96;81.74;98642.16;1754983;80;21095;-72
2021/11/27 02:56:48;;;;;;;27.17;18.02;;;;;;;5.99;81.84;98640.59;1743402;82;20984;-72
2021/11/27 02:59:20;;;;;;;26.15;17.65;;;;;;;6.03;81.90;98642.45;1771979;80;22258;-72
2021/11/27 03:01:49;;;;;;;26.23;16.73;;;;;;;6.08;82.08;98637.65;1773204;80;20948;-72
2021/11/27 03:04:18;;;;;;;21.45;15.70;;;;;;;6.12;82.25;98638.20;1777161;80;20957;-71
2021/11/27 03:06:44;;;;;;;22.42;15.90;;;;;;;6.16;82.36;98625.15;1777553;80;21020;-73
2021/11/27 03:09:13;;;;;;;24.12;16.50;;;;;;;6.19;82.45;98630.14;1742014;80;21008;-72
2021/11/27 03:11:40;;;;;;;26.05;16.10;;;;;;;6.23;82.50;98619.23;1746682;82;21820;-72
2021/11/27 03:14:06;;;;;;;20.92;14.60;;;;;;;6.27;82.57;98625.88;1721203;80;20961;-72
2021/11/27 03:16:38;;;;;;;24.35;15.18;;;;;;;6.33;82.71;98614.47;1716702;82;21024;-72
2021/11/27 03:19:04;;;;;;;23.25;15.10;;;;;;;6.38;82.88;98613.11;1738993;82;21499;-72
2021/11/27 03:21:31;;;;;;;21.65;13.85;;;;;;;6.44;83.02;98599.42;1739851;82;21476;-72
2021/11/27 03:23:58;;;;;;;19.98;13.62;;;;;;;6.49;83.15;98595.91;1731716;80;21797;-74
2021/11/27 03:26:25;;;;;;;35.33;17.52;;;;;;;6.58;83.32;98592.94;1710714;83;20966;-72
2021/11/27 03:28:52;;;;;;;35.85;15.63;;;;;;;6.64;83.51;98582.34;1709250;83;21024;-72
2021/11/27 03:31:19;;;;;;;36.50;16.25;;;;;;;6.73;83.58;98588.06;1705785;82;21060;-71
2021/11/27 03:33:46;;;;;;;47.83;20.02;;;;;;;6.80;83.61;98590.48;1744436;81;20973;-72
2021/11/27 03:36:15;;;;;;;45.65;18.35;;;;;;;6.84;83.63;98584.78;1732281;82;21847;-72
2021/11/27 03:38:42;;;;;;;50.67;19.52;;;;;;;6.89;83.67;98586.52;1724212;82;21459;-72
2021/11/27 03:41:09;;;;;;;59.60;23.30;;;;;;;6.95;83.69;98587.76;1730884;82;21095;-72
2021/11/27 03:43:38;;;;;;;65.25;23.38;;;;;;;7.01;83.71;98585.03;1730872;83;21049;-71
2021/11/27 03:46:05;;;;;;;59.25;21.97;;;;;;;7.06;83.67;98580.20;1722119;81;21071;-71
2021/11/27 03:48:35;;;;;;;61.25;22.42;;;;;;;7.12;83.64;98566.47;1730860;81;21824;-71
2021/11/27 03:51:17;;;;;;;37.15;15.95;;;;;;;7.17;83.58;98563.77;1730924;83;21075;-71
2021/11/27 03:53:45;;;;;;;33.33;13.53;;;;;;;7.19;83.49;98559.69;1730877;83;20964;-71
2021/11/27 03:56:20;;;;;;;39.25;16.30;;;;;;;7.21;83.46;98556.42;1710989;81;21091;-72
2021/11/27 03:58:49;;;;;;;29.20;13.32;;;;;;;7.25;83.39;98562.23;1698590;81;21045;-72
2021/11/27 04:01:17;;;;;;;34.67;14.20;;;;;;;7.27;83.38;98555.03;1695908;84;21857;-72
2021/11/27 04:03:45;;;;;;;46.80;17.75;;;;;;;7.29;83.36;98553.08;1726109;83;21001;-73
2021/11/27 04:06:12;;;;;;;50.30;20.37;;;;;;;7.31;83.37;98541.93;1728939;82;21069;-72
2021/11/27 04:08:40;;;;;;;49.10;19.15;;;;;;;7.31;83.38;98546.70;1730725;81;21083;-73
2021/11/27 04:11:06;;;;;;;49.73;18.17;;;;;;;7.34;83.37;98545.60;1721105;82;20966;-72
2021/11/27 04:13:33;;;;;;;55.43;19.85;;;;;;;7.35;83.36;98543.31;1663623;86;22681;-71
2021/11/27 04:16:00;;;;;;;39.92;15.98;;;;;;;7.37;83.33;98538.73;1665553;85;21017;-73
2021/11/27 04:18:27;;;;;;;31.60;14.13;;;;;;;7.38;83.32;98535.13;1681494;85;21042;-72
2021/11/27 04:20:55;;;;;;;22.95;12.13;;;;;;;7.38;83.29;98533.33;1681482;84;21005;-72
2021/11/27 04:23:22;;;;;;;23.40;12.73;;;;;;;7.39;83.25;98531.05;1677906;85;21091;-72
2021/11/27 04:25:51;;;;;;;25.70;14.40;;;;;;;7.39;83.22;98538.09;1667320;84;21831;-72
2021/11/27 04:28:19;;;;;;;28.07;13.00;;;;;;;7.40;83.20;98525.30;1655697;86;21025;-72
2021/11/27 04:30:46;;;;;;;27.17;13.32;;;;;;;7.41;83.21;98530.89;1663170;85;20984;-72
2021/11/27 04:33:13;;;;;;;21.05;10.25;;;;;;;7.42;83.19;98528.11;1722093;83;21004;-71
2021/11/27 04:35:44;;;;;;;18.70;10.08;;;;;;;7.41;83.23;98523.83;1712235;83;21044;-72
2021/11/27 04:38:13;;;;;;;17.00;8.33;;;;;;;7.42;83.24;98533.85;1712082;83;22833;-71
2021/11/27 04:40:39;;;;;;;15.72;7.87;;;;;;;7.42;83.42;98532.05;1700933;84;21063;-72
2021/11/27 04:43:07;;;;;;;23.38;12.28;;;;;;;7.45;83.31;98533.58;1666304;82;20968;-71
2021/11/27 04:45:34;;;;;;;14.50;7.42;;;;;;;7.45;83.26;98544.09;1664017;85;21008;-72
2021/11/27 04:48:01;;;;;;;8.78;5.15;;;;;;;7.44;83.25;98530.62;1686209;82;21550;-71
2021/11/27 04:50:29;;;;;;;5.78;4.30;;;;;;;7.45;83.27;98536.20;1695173;84;21844;-72
2021/11/27 04:52:56;;;;;;;7.10;4.40;;;;;;;7.46;83.26;98542.63;1676640;83;20970;-72
2021/11/27 04:55:24;;;;;;;5.28;3.90;;;;;;;7.49;83.24;98535.42;1683004;84;20998;-72
2021/11/27 04:57:52;;;;;;;4.78;3.65;;;;;;;7.48;83.25;98530.66;1677704;83;21005;-72
2021/11/27 05:00:24;;;;;;;4.78;3.35;;;;;;;7.48;83.26;98525.89;1765956;80;21060;-71
2021/11/27 05:02:52;;;;;;;4.25;2.90;;;;;;;7.50;83.28;98538.37;1690984;83;21895;-72
2021/11/27 05:05:19;;;;;;;3.75;2.98;;;;;;;7.51;83.30;98539.54;1767136;80;21051;-71
2021/11/27 05:07:46;;;;;;;2.95;2.60;;;;;;;7.54;83.29;98542.38;1697501;82;20972;-73
2021/11/27 05:10:12;;;;;;;3.00;2.55;;;;;;;7.55;83.27;98535.66;1745941;82;21647;-72
2021/11/27 05:12:40;;;;;;;4.87;3.12;;;;;;;7.55;83.29;98532.21;1726679;82;21080;-71
2021/11/27 05:15:08;;;;;;;4.75;2.83;;;;;;;7.55;83.31;98536.98;1710831;83;22930;-71
2021/11/27 05:17:37;;;;;;;4.03;3.60;;;;;;;7.58;83.34;98531.91;1710466;83;21425;-72
2021/11/27 05:20:08;;;;;;;3.95;3.25;;;;;;;7.61;83.41;98538.17;1745087;80;20960;-72
2021/11/27 05:22:35;;;;;;;4.03;3.27;;;;;;;7.63;83.42;98541.50;1726399;82;20969;-72
2021/11/27 05:25:01;;;;;;;3.95;2.90;;;;;;;7.66;83.43;98543.82;1746678;82;21510;-72
2021/11/27 05:27:33;;;;;;;4.37;2.90;;;;;;;7.67;83.44;98533.16;1743934;80;21889;-72
2021/11/27 05:30:14;;;;;;;4.20;2.72;;;;;;;7.69;83.50;98542.20;1712393;83;20952;-71
2021/11/27 05:35:27;;;;;;;3.45;2.80;;;;;;;7.73;83.65;98535.70;1747629;82;21513;-71
2021/11/27 05:37:54;;;;;;;3.95;2.50;;;;;;;7.76;83.69;98530.13;1672919;85;20976;-71
2021/11/27 05:40:22;;;;;;;4.22;2.55;;;;;;;7.77;83.81;98522.58;1696732;83;22237;-71
2021/11/27 05:42:49;;;;;;;3.05;2.55;;;;;;;7.81;83.81;98529.18;1748078;81;21035;-71
2021/11/27 05:45:16;;;;;;;5.67;3.55;;;;;;;7.86;83.81;98532.20;1749636;81;20980;-71
2021/11/27 05:47:43;;;;;;;4.85;3.25;;;;;;;7.88;83.82;98524.98;1718326;82;21625;-71
2021/11/27 05:50:12;;;;;;;5.17;3.50;;;;;;;7.90;83.81;98524.34;1713553;83;21047;-71
2021/11/27 05:52:39;;;;;;;6.45;4.25;;;;;;;7.93;83.88;98521.44;1683913;83;22167;-71
2021/11/27 05:55:07;;;;;;;5.90;4.00;;;;;;;7.98;83.88;98534.11;1730592;80;20985;-72
2021/11/27 05:57:34;;;;;;;4.87;3.65;;;;;;;8.00;83.90;98536.09;1729641;82;21056;-72
2021/11/27 06:00:03;;;;;;;2.70;2.47;;;;;;;8.03;83.93;98530.07;1697932;83;21016;-73
2021/11/27 06:02:31;;;;;;;5.72;3.17;;;;;;;8.07;83.92;98532.39;1741763;80;21004;-72
2021/11/27 06:04:58;;;;;;;4.20;3.17;;;;;;;8.09;83.92;98534.38;1734887;81;22841;-72
2021/11/27 06:07:24;;;;;;;4.28;3.10;;;;;;;8.12;83.92;98543.30;1753079;81;20989;-72
2021/11/27 06:09:51;;;;;;;4.70;3.45;;;;;;;8.15;83.93;98545.61;1725978;80;21000;-72
2021/11/27 06:12:19;;;;;;;4.42;3.35;;;;;;;8.17;83.91;98544.48;1744678;80;21125;-72
2021/11/27 06:14:45;;;;;;;4.10;3.00;;;;;;;8.20;83.86;98542.88;1757238;80;20965;-72
2021/11/27 06:17:13;;;;;;;4.75;2.90;;;;;;;8.22;83.86;98546.67;1752967;80;22593;-73
2021/11/27 06:19:39;;;;;;;4.12;3.20;;;;;;;8.23;83.86;98547.83;1746279;82;21044;-72
2021/11/27 06:22:06;;;;;;;4.72;3.52;;;;;;;8.24;83.87;98539.45;1757851;80;20969;-72
2021/11/27 06:24:32;;;;;;;4.60;3.37;;;;;;;8.26;83.86;98536.17;1737115;80;21283;-72
2021/11/27 06:27:01;;;;;;;4.05;3.45;;;;;;;8.27;83.86;98530.75;1746038;80;21044;-73
2021/11/27 06:29:28;;;;;;;5.05;3.80;;;;;;;8.28;83.90;98539.47;1741235;81;21735;-73
2021/11/27 06:31:55;;;;;;;5.22;4.30;;;;;;;8.30;83.88;98533.59;1738431;82;21024;-73
2021/11/27 06:34:22;;;;;;;9.08;4.70;;;;;;;8.32;83.89;98547.41;1719889;82;21542;-74
2021/11/27 06:36:49;;;;;;;5.05;4.50;;;;;;;8.33;83.87;98537.22;1724888;81;20965;-75
2021/11/27 06:39:15;;;;;;;4.37;3.95;;;;;;;8.36;83.87;98540.06;1712734;82;20949;-74
2021/11/27 06:41:42;;;;;;;7.60;4.25;;;;;;;8.37;83.86;98537.77;1735009;81;21828;-75
2021/11/27 06:44:10;;;;;;;5.08;4.15;;;;;;;8.38;83.82;98542.87;1732180;80;21076;-74
2021/11/27 06:46:41;;;;;;;5.47;4.17;;;;;;;8.40;83.81;98550.14;1727475;80;21037;-74
2021/11/27 06:49:10;;;;;;;6.28;4.25;;;;;;;8.41;83.79;98549.16;1719973;81;20993;-73
2021/11/27 06:51:38;;;;;;;5.08;4.30;;;;;;;8.42;83.76;98550.81;1736664;80;21421;-73
2021/11/27 06:54:05;;;;;;;7.42;5.10;;;;;;;8.46;83.78;98552.63;1727118;81;22212;-72
2021/11/27 06:56:32;;;;;;;5.42;4.40;;;;;;;8.48;83.77;98550.17;1737438;82;21044;-73
2021/11/27 06:58:59;;;;;;;5.58;4.40;;;;;;;8.51;83.74;98552.52;1721933;81;21440;-74
2021/11/27 07:01:34;;;;;;;6.45;4.80;;;;;;;8.52;83.71;98547.59;1732187;80;21569;-72
2021/11/27 07:04:19;;;;;;;6.22;4.55;;;;;;;8.55;83.69;98540.70;1706304;82;21052;-72
2021/11/27 07:07:04;;;;;;;5.83;4.80;;;;;;;8.56;83.74;98542.84;1713448;81;22880;-74
2021/11/27 07:09:47;;;;;;;7.72;5.22;;;;;;;8.57;83.79;98546.63;1743075;81;20989;-68
2021/11/27 07:12:22;;;;;;;7.50;5.70;;;;;;;8.59;83.83;98549.13;1688144;81;21016;-73
2021/11/27 07:14:49;;;;;;;7.08;5.35;;;;;;;8.62;83.79;98543.55;1736110;81;21408;-72
2021/11/27 07:17:16;;;;;;;8.20;6.00;;;;;;;8.65;83.78;98533.20;1735150;82;20991;-73
2021/11/27 07:19:43;;;;;;;9.13;6.05;;;;;;;8.66;83.75;98534.36;1727082;82;21834;-72
2021/11/27 07:22:10;;;;;;;7.53;5.90;;;;;;;8.68;83.77;98540.28;1712505;82;21053;-72
2021/11/27 07:24:36;;;;;;;6.97;5.75;;;;;;;8.70;83.76;98540.16;1696943;84;21068;-70
2021/11/27 07:27:06;;;;;;;8.23;6.60;;;;;;;8.73;83.76;98542.47;1732025;81;21061;-70
2021/11/27 07:29:35;;;;;;;8.10;6.60;;;;;;;8.74;83.74;98529.15;1734818;80;21008;-74
2021/11/27 07:32:02;;;;;;;8.48;6.00;;;;;;;8.77;83.71;98534.09;1750264;81;21836;-71
2021/11/27 07:34:28;;;;;;;8.25;6.30;;;;;;;8.80;83.68;98538.25;1718377;81;20950;-72
2021/11/27 07:36:55;;;;;;;9.65;7.12;;;;;;;8.80;83.66;98533.80;1713493;83;20963;-73
2021/11/27 07:39:22;;;;;;;7.03;5.95;;;;;;;8.84;83.64;98538.25;1708206;83;21011;-75
2021/11/27 07:41:49;;;;;;;8.08;5.70;;;;;;;8.85;83.63;98541.22;1716326;81;20932;-75
2021/11/27 07:44:17;;;;;;;8.10;6.40;;;;;;;8.87;83.63;98546.66;1735023;81;21408;-72
2021/11/27 07:46:57;;;;;;;9.28;6.42;;;;;;;8.90;83.62;98545.55;1702953;83;21495;-74
2021/11/27 07:49:26;;;;;;;8.98;6.72;;;;;;;8.92;83.64;98552.79;1641881;85;21472;-73
2021/11/27 07:51:57;;;;;;;10.18;6.67;;;;;;;8.95;83.65;98542.42;1647631;85;21464;-74
2021/11/27 07:54:24;;;;;;;10.35;7.58;;;;;;;8.99;83.65;98541.16;1682212;83;21024;-71
2021/11/27 07:56:54;;;;;;;11.30;8.15;;;;;;;9.03;83.66;98538.53;1688916;84;21905;-72
2021/11/27 07:59:20;;;;;;;10.00;7.08;;;;;;;9.07;83.61;98551.70;1681770;83;21057;-73
2021/11/27 08:01:47;;;;;;;10.03;7.55;;;;;;;9.10;83.56;98548.28;1718676;81;21386;-73
2021/11/27 08:04:18;;;;;;;9.28;7.78;;;;;;;9.12;83.50;98550.27;1699466;83;21008;-72
2021/11/27 08:06:45;;;;;;;11.28;7.80;;;;;;;9.16;83.48;98552.08;1742881;81;21542;-75
2021/11/27 08:09:12;;;;;;;9.33;7.60;;;;;;;9.21;83.44;98551.63;1735633;82;21866;-75
2021/11/27 08:11:39;;;;;;;9.68;7.50;;;;;;;9.23;83.39;98560.19;1737621;82;20961;-76
2021/11/27 08:14:08;;;;;;;9.30;7.47;;;;;;;9.25;83.33;98558.22;1712579;82;21432;-72
2021/11/27 08:16:34;;;;;;;9.65;7.40;;;;;;;9.25;83.28;98555.09;1722813;83;21042;-72
2021/11/27 08:19:02;;;;;;;13.08;8.80;;;;;;;9.27;83.19;98561.05;1683808;84;21511;-72
2021/11/27 08:21:29;;;;;;;9.40;8.40;;;;;;;9.27;83.17;98557.09;1681391;85;21814;-72
2021/11/27 08:23:56;;;;;;;11.03;8.23;;;;;;;9.27;83.14;98554.47;1691838;84;21012;-67
2021/11/27 08:26:22;;;;;;;11.83;8.53;;;;;;;9.28;83.10;98550.84;1690682;84;21382;-68
2021/11/27 08:28:50;;;;;;;12.18;9.78;;;;;;;9.30;83.08;98549.36;1670745;83;39682;-69
2021/11/27 08:31:17;;;;;;;17.40;10.38;;;;;;;9.31;83.07;98546.56;1665185;84;21035;-70
2021/11/27 08:33:44;;;;;;;17.20;11.40;;;;;;;9.33;83.08;98551.18;1727271;82;23051;-70
2021/11/27 08:36:12;;;;;;;13.15;9.53;;;;;;;9.34;83.09;98554.64;1748016;82;21471;-69
2021/11/27 08:38:39;;;;;;;13.72;10.13;;;;;;;9.37;83.07;98555.66;1684530;83;21016;-68
2021/11/27 08:41:08;;;;;;;15.23;10.48;;;;;;;9.42;83.10;98549.41;1696612;84;21040;-69
2021/11/27 08:43:37;;;;;;;12.28;9.53;;;;;;;9.48;83.18;98548.78;1687547;83;20886;-68
2021/11/27 08:46:03;;;;;;;15.08;10.20;;;;;;;9.55;83.18;98547.13;1667261;86;22149;-69
2021/11/27 08:48:36;;;;;;;14.25;10.43;;;;;;;9.63;83.04;98543.21;1684124;85;21059;-69
2021/11/27 08:51:04;;;;;;;13.13;9.75;;;;;;;9.68;83.01;98542.75;1696635;83;21060;-70
2021/11/27 08:53:31;;;;;;;14.58;10.58;;;;;;;9.73;82.87;98539.12;1677451;85;21057;-70
2021/11/27 08:55:58;;;;;;;14.58;10.15;;;;;;;9.77;82.68;98546.23;1678355;84;21013;-68
2021/11/27 08:58:25;;;;;;;15.15;11.48;;;;;;;9.78;82.44;98549.20;1678590;85;21803;-68
2021/11/27 09:00:52;;;;;;;15.63;11.78;;;;;;;9.81;82.40;98548.38;1689628;84;21064;-69
2021/11/27 09:03:18;;;;;;;21.80;15.80;;;;;;;9.83;82.28;98542.93;1700263;83;21015;-69
2021/11/27 09:05:45;;;;;;;14.50;10.50;;;;;;;9.88;82.32;98540.64;1683954;84;20988;-69
2021/11/27 09:08:12;;;;;;;13.78;10.55;;;;;;;9.94;82.29;98549.20;1704651;83;21075;-69
2021/11/27 09:10:40;;;;;;;15.32;10.10;;;;;;;9.97;82.13;98537.86;1687228;84;21035;-68
2021/11/27 09:13:09;;;;;;;10.90;9.18;;;;;;;10.03;81.99;98544.28;1686176;83;21029;-68
2021/11/27 09:15:36;;;;;;;13.40;10.63;;;;;;;10.03;81.72;98545.11;1680723;84;20964;-69
2021/11/27 09:18:03;;;;;;;14.98;10.15;;;;;;;10.03;81.62;98534.55;1742490;82;21009;-70
2021/11/27 09:20:32;;;;;;;15.00;10.88;;;;;;;10.03;81.47;98546.92;1672193;84;21032;-69
2021/11/27 09:23:00;;;;;;;14.28;10.43;;;;;;;10.07;81.47;98540.34;1752029;82;21853;-69
2021/11/27 09:25:29;;;;;;;16.62;12.25;;;;;;;10.15;81.39;98547.45;1749426;81;20961;-69
2021/11/27 09:27:56;;;;;;;14.70;11.50;;;;;;;10.19;81.28;98544.30;1741527;82;21432;-69
2021/11/27 09:30:24;;;;;;;18.92;14.20;;;;;;;10.32;81.31;98545.98;1728534;82;21642;-69
2021/11/27 09:32:51;;;;;;;14.47;11.25;;;;;;;10.50;81.44;98541.03;1724840;83;21045;-69
2021/11/27 09:35:18;;;;;;;17.95;13.32;;;;;;;10.64;81.00;98537.73;1724720;83;21827;-68
2021/11/27 09:37:45;;;;;;;15.78;10.43;;;;;;;10.79;80.78;98541.83;1725035;82;21384;-69
2021/11/27 09:40:12;;;;;;;15.80;11.48;;;;;;;10.86;79.99;98535.71;1725333;82;21002;-70
2021/11/27 09:55:50;;;;;;;18.77;13.62;;;;;;;11.37;77.58;98538.02;1736721;80;22653;-69
2021/11/27 09:58:18;;;;;;;15.15;11.45;;;;;;;11.32;77.31;98539.05;1714941;82;21015;-69
2021/11/27 10:00:45;;;;;;;20.65;15.65;;;;;;;11.29;77.16;98538.05;1715032;82;21874;-70
2021/11/27 10:03:12;;;;;;;22.07;15.75;;;;;;;11.28;77.12;98536.41;1689571;83;21062;-70
2021/11/27 10:05:40;;;;;;;17.45;12.35;;;;;;;11.27;76.98;98536.91;1708862;82;20971;-70
2021/11/27 10:08:09;;;;;;;14.73;10.85;;;;;;;11.28;76.92;98540.38;1681145;84;21004;-69
2021/11/27 10:10:37;;;;;;;17.87;13.20;;;;;;;11.26;76.60;98533.94;1714915;82;20995;-70
2021/11/27 10:13:04;;;;;;;21.10;14.87;;;;;;;11.24;76.73;98522.72;1708885;84;22238;-70
2021/11/27 10:15:31;;;;;;;15.25;11.48;;;;;;;11.29;76.92;98536.73;1708658;83;20964;-70
2021/11/27 10:17:59;;;;;;;16.85;12.53;;;;;;;11.35;76.90;98541.34;1718530;82;20968;-70
2021/11/27 10:20:29;;;;;;;17.32;10.95;;;;;;;11.39;76.69;98536.88;1685728;82;21012;-70
2021/11/27 10:22:56;;;;;;;25.77;16.23;;;;;;;11.40;76.46;98535.88;1738214;82;21497;-70
2021/11/27 10:25:37;;;;;;;23.70;14.40;;;;;;;11.40;76.11;98534.56;1738290;82;21780;-70
2021/11/27 10:28:12;;;;;;;29.60;17.60;;;;;;;11.40;76.04;98536.38;1738386;82;21501;-70
2021/11/27 10:30:54;;;;;;;13.10;10.90;;;;;;;11.40;75.95;98533.23;1738225;82;20959;-70
2021/11/27 10:33:21;;;;;;;15.72;10.85;;;;;;;11.45;75.94;98530.88;1738587;82;21008;-70
2021/11/27 10:36:03;;;;;;;15.60;9.60;;;;;;;11.54;75.83;98533.00;1734348;82;21493;-70
2021/11/27 10:38:42;;;;;;;18.95;13.08;;;;;;;11.67;75.56;98533.75;1734652;82;22680;-69
2021/11/27 10:41:11;;;;;;;14.45;11.15;;;;;;;11.76;75.26;98541.47;1715714;82;21012;-69
2021/11/27 10:43:58;;;;;;;12.90;10.23;;;;;;;11.88;75.14;98539.30;1716239;82;20970;-69
2021/11/27 10:46:28;;;;;;;14.18;10.48;;;;;;;11.98;74.74;98541.72;1740396;82;21072;-71
2021/11/27 10:48:56;;;;;;;14.35;10.40;;;;;;;12.01;73.99;98536.07;1716562;82;21521;-71
2021/11/27 10:51:22;;;;;;;13.55;9.15;;;;;;;12.01;73.64;98544.01;1729827;82;21835;-71
2021/11/27 10:53:59;;;;;;;19.17;13.30;;;;;;;12.01;73.62;98538.22;1740553;82;21422;-71
2021/11/27 10:56:46;;;;;;;17.37;12.33;;;;;;;12.01;73.25;98534.75;1720501;82;21015;-70
2021/11/27 10:59:14;;;;;;;13.48;10.60;;;;;;;11.95;72.64;98537.58;1710916;84;21004;-71
2021/11/27 11:02:10;;;;;;;17.87;12.43;;;;;;;11.91;72.69;98538.13;1711127;84;21434;-71
2021/11/27 11:04:37;;;;;;;16.10;12.80;;;;;;;11.85;72.62;98542.27;1709845;84;22254;-70
2021/11/27 11:07:19;;;;;;;12.35;10.25;;;;;;;11.76;72.51;98539.32;1710959;84;21030;-70
2021/11/27 11:10:12;;;;;;;12.35;10.10;;;;;;;11.73;72.39;98542.32;1724102;82;21541;-71
2021/11/27 11:12:48;;;;;;;15.10;10.80;;;;;;;11.73;72.25;98541.00;1740503;82;20979;-70
2021/11/27 11:15:22;;;;;;;12.30;9.65;;;;;;;11.76;71.97;98538.82;1740866;82;21023;-70
2021/11/27 11:18:14;;;;;;;18.55;12.23;;;;;;;11.82;71.50;98554.54;1740538;82;21819;-71
2021/11/27 11:20:57;;;;;;;20.88;13.60;;;;;;;11.85;71.43;98544.92;1734823;82;20963;-69
2021/11/27 11:23:27;;;;;;;18.45;12.70;;;;;;;11.91;71.37;98552.67;1740817;82;21468;-69
2021/11/27 11:25:58;;;;;;;13.80;10.90;;;;;;;11.91;71.43;98549.52;1732427;82;21051;-69
2021/11/27 11:28:29;;;;;;;13.35;10.88;;;;;;;11.89;71.37;98549.38;1712073;82;21062;-70
2021/11/27 11:31:04;;;;;;;11.83;9.58;;;;;;;11.85;71.34;98548.06;1723991;82;21776;-73
2021/11/27 11:33:32;;;;;;;11.05;9.85;;;;;;;11.80;71.36;98544.64;1720003;82;20968;-69
2021/11/27 11:36:01;;;;;;;12.58;10.05;;;;;;;11.75;71.30;98546.93;1716290;82;21370;-69
2021/11/27 11:38:29;;;;;;;17.40;12.63;;;;;;;11.72;71.40;98552.08;1722739;82;21055;-69
2021/11/27 11:40:58;;;;;;;52.27;25.23;;;;;;;11.69;71.23;98543.68;1723944;81;21485;-69
2021/11/27 11:43:24;;;;;;;20.48;14.60;;;;;;;11.69;71.44;98552.94;1721571;82;21819;-69
2021/11/27 11:45:51;;;;;;;19.85;16.67;;;;;;;11.69;71.47;98553.76;1726358;82;20978;-69
2021/11/27 11:48:23;;;;;;;40.98;25.68;;;;;;;11.70;71.44;98554.08;1707485;82;20995;-72
2021/11/27 11:50:57;;;;;;;36.30;22.77;;;;;;;11.71;71.54;98557.05;1716722;82;21493;-70
2021/11/27 11:53:41;;;;;;;19.23;13.25;;;;;;;11.71;71.56;98558.37;1715832;82;21054;-71